Time;durP1;ratioP1;P1;durP2;ratioP2;P2;SDS_P1;SDS_P2;PMS_P1;PMS_P2;Temp;Humidity;BMP_temperature;BMP_pressure;BME280_temperature;BME280_humidity;BME280_pressure;Samples;Min_cycle;Max_cycle;Signal;HPM_P1;HPM_P2
2024/01/17 00:00:23;;;;;;;12.88;3.58;;;;;;;;;;5010792;28;20053;-62
2024/01/17 00:02:50;;;;;;;14.63;4.50;;;;;;;;;;5022780;28;20049;-62
2024/01/17 00:05:18;;;;;;;16.52;4.55;;;;;;;;;;5031536;28;20049;-62
2024/01/17 00:07:45;;;;;;;;;;;;;;;;;;5030668;28;20099;-62
2024/01/17 00:10:11;;;;;;;9.10;3.13;;;;;;;;;;5020668;28;19924;-63
2024/01/17 00:12:38;;;;;;;10.07;3.75;;;;;;;;;;5033226;28;20053;-62
2024/01/17 00:15:07;;;;;;;10.43;4.05;;;;;;;;;;5010857;28;21303;-62
2024/01/17 00:17:33;;;;;;;11.25;4.13;;;;;;;;;;5015694;28;20110;-62
2024/01/17 00:20:00;;;;;;;10.20;4.13;;;;;;;;;;5026395;28;20084;-61
2024/01/17 00:22:28;;;;;;;14.63;5.05;;;;;;;;;;5034283;28;20050;-62
2024/01/17 00:24:55;;;;;;;10.02;3.72;;;;;;;;;;5009611;28;20095;-62
2024/01/17 00:27:25;;;;;;;9.38;3.92;;;;;;;;;;5032667;28;20556;-62
2024/01/17 00:29:56;;;;;;;8.75;3.67;;;;;;;;;;5013315;28;20077;-62
2024/01/17 00:32:23;;;;;;;11.90;3.75;;;;;;;;;;5044285;28;20149;-64
2024/01/17 00:34:51;;;;;;;11.35;4.22;;;;;;;;;;5044973;28;20041;-62
2024/01/17 00:37:18;;;;;;;10.52;3.83;;;;;;;;;;5043515;28;20053;-61
2024/01/17 00:39:46;;;;;;;9.40;4.00;;;;;;;;;;5028716;28;20069;-61
2024/01/17 00:42:12;;;;;;;10.07;4.18;;;;;;;;;;5016274;28;20057;-62
2024/01/17 00:44:41;;;;;;;10.18;3.85;;;;;;;;;;5016870;28;20160;-61
2024/01/17 00:47:08;;;;;;;11.55;3.75;;;;;;;;;;5029573;28;20057;-61
2024/01/17 00:49:36;;;;;;;8.10;3.83;;;;;;;;;;5014876;28;20053;-61
2024/01/17 00:52:04;;;;;;;;;;;;;;;;;;5007853;28;20058;-61
2024/01/17 00:54:30;;;;;;;10.18;3.60;;;;;;;;;;5030622;28;19921;-61
2024/01/17 00:56:59;;;;;;;15.20;3.50;;;;;;;;;;5025353;28;20152;-61
2024/01/17 00:59:25;;;;;;;;;;;;;;;;;;5009223;28;20147;-61
2024/01/17 01:01:52;;;;;;;8.02;2.85;;;;;;;;;;5042967;28;19932;-61
2024/01/17 01:04:19;;;;;;;14.48;4.88;;;;;;;;;;5013011;28;20496;-60
2024/01/17 01:06:48;;;;;;;8.45;3.90;;;;;;;;;;5005149;28;20072;-61
2024/01/17 01:09:16;;;;;;;10.23;3.47;;;;;;;;;;5015033;28;20041;-60
2024/01/17 01:11:43;;;;;;;11.77;4.70;;;;;;;;;;5012980;28;20180;-61
2024/01/17 01:14:13;;;;;;;12.82;3.90;;;;;;;;;;5031538;28;20046;-60
2024/01/17 01:16:41;;;;;;;10.68;3.72;;;;;;;;;;5007747;28;20077;-60
2024/01/17 01:19:09;;;;;;;9.57;4.30;;;;;;;;;;5030913;28;20041;-62
2024/01/17 01:21:36;;;;;;;9.10;3.45;;;;;;;;;;5047083;28;20134;-61
2024/01/17 01:24:03;;;;;;;8.77;4.10;;;;;;;;;;5015162;28;20060;-61
2024/01/17 01:26:29;;;;;;;16.48;4.35;;;;;;;;;;5017060;28;20068;-61
2024/01/17 01:28:56;;;;;;;9.63;3.67;;;;;;;;;;5009785;28;20053;-61
2024/01/17 01:31:24;;;;;;;13.75;4.78;;;;;;;;;;4994605;28;20125;-60
2024/01/17 01:33:51;;;;;;;13.70;4.35;;;;;;;;;;5050165;28;20057;-61
2024/01/17 01:36:18;;;;;;;9.05;3.50;;;;;;;;;;5049912;28;20049;-60
2024/01/17 01:38:48;;;;;;;13.90;4.15;;;;;;;;;;5044905;28;20049;-60
2024/01/17 01:41:15;;;;;;;9.10;3.83;;;;;;;;;;5009586;28;20045;-60
2024/01/17 01:43:43;;;;;;;10.93;4.03;;;;;;;;;;5016049;28;20112;-60
2024/01/17 01:46:13;;;;;;;10.40;3.40;;;;;;;;;;5015795;28;20099;-60
2024/01/17 01:48:43;;;;;;;9.80;3.75;;;;;;;;;;5014795;28;20131;-60
2024/01/17 01:51:11;;;;;;;8.68;3.53;;;;;;;;;;5022768;28;20060;-61
2024/01/17 01:53:39;;;;;;;9.07;3.70;;;;;;;;;;5047985;28;20143;-60
2024/01/17 01:56:07;;;;;;;12.63;3.90;;;;;;;;;;5012559;28;20132;-61
2024/01/17 01:58:36;;;;;;;11.40;4.05;;;;;;;;;;5015355;28;20049;-60
2024/01/17 02:01:04;;;;;;;8.07;3.28;;;;;;;;;;5022823;28;20886;-61
2024/01/17 02:03:31;;;;;;;10.07;4.05;;;;;;;;;;5017116;28;20053;-60
2024/01/17 02:06:00;;;;;;;9.07;3.50;;;;;;;;;;5045637;28;20061;-60
2024/01/17 02:08:28;;;;;;;12.32;3.60;;;;;;;;;;5048738;28;20046;-60
2024/01/17 02:10:56;;;;;;;11.25;3.97;;;;;;;;;;4996744;28;20061;-60
2024/01/17 02:13:23;;;;;;;8.60;3.72;;;;;;;;;;5045271;28;20053;-59
2024/01/17 02:15:49;;;;;;;9.55;4.10;;;;;;;;;;5015890;28;20455;-59
2024/01/17 02:18:16;;;;;;;11.15;3.33;;;;;;;;;;5048344;28;20572;-60
2024/01/17 02:20:45;;;;;;;9.23;3.78;;;;;;;;;;5024681;28;20061;-60
2024/01/17 02:23:24;;;;;;;7.68;3.35;;;;;;;;;;5031684;28;20115;-59
2024/01/17 02:25:52;;;;;;;12.57;3.30;;;;;;;;;;5010188;28;20192;-61
2024/01/17 02:28:19;;;;;;;;;;;;;;;;;;5011453;28;20307;-60
2024/01/17 02:30:47;;;;;;;7.13;3.17;;;;;;;;;;5023938;28;19925;-62
2024/01/17 02:33:14;;;;;;;6.32;3.00;;;;;;;;;;5029756;28;20053;-60
2024/01/17 02:35:40;;;;;;;9.63;3.22;;;;;;;;;;5017100;28;20073;-59
2024/01/17 02:38:07;;;;;;;9.35;2.83;;;;;;;;;;5015240;28;20085;-60
2024/01/17 02:40:33;;;;;;;8.38;3.60;;;;;;;;;;5009643;28;20136;-59
2024/01/17 02:43:01;;;;;;;8.40;3.42;;;;;;;;;;5010246;28;20057;-60
2024/01/17 02:45:28;;;;;;;12.43;4.65;;;;;;;;;;5014033;28;20132;-60
2024/01/17 02:47:54;;;;;;;12.32;3.75;;;;;;;;;;5017025;28;20141;-59
2024/01/17 02:50:22;;;;;;;11.82;3.88;;;;;;;;;;5026934;28;20053;-60
2024/01/17 02:52:49;;;;;;;9.03;2.63;;;;;;;;;;5009219;28;20056;-59
2024/01/17 02:55:16;;;;;;;7.43;3.25;;;;;;;;;;5029062;28;20107;-59
2024/01/17 02:57:44;;;;;;;10.38;3.33;;;;;;;;;;5013173;28;20053;-59
2024/01/17 03:00:13;;;;;;;9.13;3.03;;;;;;;;;;5016359;28;20120;-59
2024/01/17 03:02:40;;;;;;;7.95;3.20;;;;;;;;;;5014145;28;20053;-59
2024/01/17 03:05:08;;;;;;;9.48;3.83;;;;;;;;;;4996544;28;20045;-59
2024/01/17 03:07:35;;;;;;;10.20;3.88;;;;;;;;;;5015554;28;20122;-59
2024/01/17 03:10:01;;;;;;;7.30;3.30;;;;;;;;;;5042316;28;20041;-60
2024/01/17 03:12:28;;;;;;;6.72;2.63;;;;;;;;;;5030184;28;20057;-59
2024/01/17 03:14:55;;;;;;;9.77;2.88;;;;;;;;;;5010799;28;20415;-60
2024/01/17 03:17:23;;;;;;;7.03;3.30;;;;;;;;;;5014359;28;20085;-59
2024/01/17 03:19:50;;;;;;;8.10;3.33;;;;;;;;;;5015245;28;20053;-59
2024/01/17 03:22:17;;;;;;;6.60;2.63;;;;;;;;;;5026735;28;20154;-59
2024/01/17 03:24:45;;;;;;;8.77;3.72;;;;;;;;;;5034381;28;20045;-59
2024/01/17 03:27:13;;;;;;;10.90;3.33;;;;;;;;;;5012592;28;20159;-59
2024/01/17 03:29:39;;;;;;;6.97;2.78;;;;;;;;;;5012631;28;20143;-59
2024/01/17 03:32:07;;;;;;;10.52;3.92;;;;;;;;;;5011602;28;20065;-59
2024/01/17 03:34:35;;;;;;;10.47;3.30;;;;;;;;;;5014669;28;20131;-59
2024/01/17 03:37:02;;;;;;;6.60;2.47;;;;;;;;;;5023409;28;20107;-60
2024/01/17 03:39:29;;;;;;;12.30;3.08;;;;;;;;;;5047946;28;20100;-59
2024/01/17 03:41:55;;;;;;;7.32;3.35;;;;;;;;;;5013551;28;20134;-59
2024/01/17 03:44:23;;;;;;;7.25;3.58;;;;;;;;;;5008584;28;20107;-60
2024/01/17 03:46:52;;;;;;;9.77;3.15;;;;;;;;;;5014074;28;20115;-59
2024/01/17 03:49:19;;;;;;;13.02;3.13;;;;;;;;;;5018287;28;20061;-59
2024/01/17 03:51:48;;;;;;;8.65;2.85;;;;;;;;;;5018386;28;20049;-59
2024/01/17 03:54:15;;;;;;;6.85;3.08;;;;;;;;;;5022747;28;20144;-59
2024/01/17 03:56:42;;;;;;;12.48;2.88;;;;;;;;;;5016359;28;20072;-59
2024/01/17 03:59:09;;;;;;;9.18;2.95;;;;;;;;;;5051928;28;20114;-59
2024/01/17 04:01:42;;;;;;;10.32;3.22;;;;;;;;;;5015739;28;20080;-59
2024/01/17 04:04:09;;;;;;;9.27;3.30;;;;;;;;;;5013171;28;20273;-59
2024/01/17 04:06:36;;;;;;;6.90;3.10;;;;;;;;;;5050409;28;20038;-59
2024/01/17 04:09:05;;;;;;;7.93;3.60;;;;;;;;;;5048141;28;20160;-59
2024/01/17 04:11:31;;;;;;;9.60;2.78;;;;;;;;;;5050045;28;20054;-59
2024/01/17 04:13:59;;;;;;;7.55;3.17;;;;;;;;;;5006799;28;20049;-60
2024/01/17 04:16:26;;;;;;;8.55;3.33;;;;;;;;;;5018243;28;20061;-59
2024/01/17 04:18:53;;;;;;;10.20;3.53;;;;;;;;;;5045528;28;20302;-59
2024/01/17 04:21:20;;;;;;;7.15;3.22;;;;;;;;;;5017582;28;20128;-59
2024/01/17 04:23:48;;;;;;;8.88;3.38;;;;;;;;;;5014548;28;20053;-58
2024/01/17 04:26:23;;;;;;;7.80;3.13;;;;;;;;;;5012971;28;20029;-59
2024/01/17 04:28:50;;;;;;;15.23;3.65;;;;;;;;;;5048780;28;20042;-60
2024/01/17 04:31:25;;;;;;;8.27;2.85;;;;;;;;;;5019589;28;20133;-59
2024/01/17 04:33:52;;;;;;;9.68;3.20;;;;;;;;;;5009978;28;20052;-60
2024/01/17 04:36:19;;;;;;;8.90;3.67;;;;;;;;;;5049054;28;20166;-59
2024/01/17 04:38:46;;;;;;;7.18;2.85;;;;;;;;;;5059469;28;20050;-60
2024/01/17 04:41:13;;;;;;;3.05;1.73;;;;;;;;;;5022364;28;20057;-59
2024/01/17 04:43:42;;;;;;;9.52;3.00;;;;;;;;;;5017350;28;20140;-60
2024/01/17 04:46:12;;;;;;;6.10;2.80;;;;;;;;;;5044736;28;20267;-59
2024/01/17 04:48:39;;;;;;;8.23;2.95;;;;;;;;;;5015151;28;20076;-59
2024/01/17 04:51:06;;;;;;;7.70;3.40;;;;;;;;;;5011961;28;20054;-59
2024/01/17 04:53:33;;;;;;;9.73;3.00;;;;;;;;;;5019075;28;20165;-58
2024/01/17 04:55:59;;;;;;;7.10;2.72;;;;;;;;;;4994584;28;20060;-60
2024/01/17 04:58:28;;;;;;;10.38;3.85;;;;;;;;;;5010423;28;20049;-58
2024/01/17 05:00:56;;;;;;;14.15;4.47;;;;;;;;;;5034344;28;20065;-59
2024/01/17 05:03:23;;;;;;;7.43;3.10;;;;;;;;;;5017783;28;20081;-60
2024/01/17 05:05:50;;;;;;;10.75;3.63;;;;;;;;;;5010808;28;20150;-59
2024/01/17 05:08:16;;;;;;;17.10;6.60;;;;;;;;;;5019352;28;20349;-59
2024/01/17 05:10:44;;;;;;;11.10;4.47;;;;;;;;;;5050471;28;20212;-59
2024/01/17 05:13:11;;;;;;;9.93;3.03;;;;;;;;;;5018128;28;20100;-59
2024/01/17 05:15:38;;;;;;;11.23;3.53;;;;;;;;;;4976537;28;20054;-59
2024/01/17 05:18:08;;;;;;;8.90;3.13;;;;;;;;;;5018793;28;20268;-58
2024/01/17 05:20:35;;;;;;;16.15;4.82;;;;;;;;;;5014882;28;20061;-54
2024/01/17 05:23:02;;;;;;;17.25;7.07;;;;;;;;;;5044499;28;20037;-58
2024/01/17 05:25:29;;;;;;;12.88;4.35;;;;;;;;;;5041823;28;20073;-59
2024/01/17 05:27:58;;;;;;;8.45;3.17;;;;;;;;;;5011617;28;20045;-57
2024/01/17 05:30:26;;;;;;;9.93;3.25;;;;;;;;;;5049328;28;20053;-56
2024/01/17 05:32:53;;;;;;;11.25;3.38;;;;;;;;;;5031799;28;20053;-55
2024/01/17 05:35:22;;;;;;;12.52;3.47;;;;;;;;;;5043434;28;20041;-58
2024/01/17 05:37:49;;;;;;;8.98;2.95;;;;;;;;;;5048911;28;20048;-58
2024/01/17 05:40:16;;;;;;;6.38;2.83;;;;;;;;;;5009953;28;20151;-58
2024/01/17 05:42:45;;;;;;;6.93;2.90;;;;;;;;;;5020222;28;20091;-57
2024/01/17 05:45:14;;;;;;;6.95;3.28;;;;;;;;;;5025224;28;20083;-57
2024/01/17 05:47:41;;;;;;;7.32;2.63;;;;;;;;;;5014256;28;20057;-57
2024/01/17 05:50:11;;;;;;;7.40;2.78;;;;;;;;;;5022797;28;20057;-58
2024/01/17 05:52:41;;;;;;;9.30;3.10;;;;;;;;;;5012121;28;20063;-58
2024/01/17 05:55:09;;;;;;;8.00;2.85;;;;;;;;;;5008918;28;20064;-57
2024/01/17 05:57:37;;;;;;;9.23;3.28;;;;;;;;;;5015637;28;20053;-55
2024/01/17 06:00:04;;;;;;;7.00;3.00;;;;;;;;;;4997308;28;20041;-61
2024/01/17 06:02:31;;;;;;;10.33;3.03;;;;;;;;;;5029953;28;20049;-58
2024/01/17 06:05:00;;;;;;;6.78;2.90;;;;;;;;;;5006946;28;20076;-56
2024/01/17 06:07:27;;;;;;;6.85;2.47;;;;;;;;;;5047777;28;20477;-57
2024/01/17 06:09:55;;;;;;;11.05;3.60;;;;;;;;;;5004164;28;20105;-56
2024/01/17 06:12:22;;;;;;;8.50;3.38;;;;;;;;;;5041565;28;20088;-57
2024/01/17 06:14:49;;;;;;;7.20;3.20;;;;;;;;;;5012876;28;20053;-58
2024/01/17 06:17:16;;;;;;;7.30;3.20;;;;;;;;;;5013992;28;20049;-58
2024/01/17 06:19:43;;;;;;;7.93;3.00;;;;;;;;;;5014521;28;20065;-59
2024/01/17 06:22:10;;;;;;;7.10;2.95;;;;;;;;;;5008166;28;20278;-56
2024/01/17 06:24:38;;;;;;;6.47;2.75;;;;;;;;;;5014179;28;20045;-58
2024/01/17 06:27:06;;;;;;;9.02;3.38;;;;;;;;;;5011361;28;20542;-54
2024/01/17 06:29:34;;;;;;;7.50;3.25;;;;;;;;;;5010360;28;20129;-57
2024/01/17 06:32:03;;;;;;;13.18;3.95;;;;;;;;;;4998095;28;20046;-58
2024/01/17 06:34:30;;;;;;;6.93;3.28;;;;;;;;;;4979716;28;20061;-58
2024/01/17 06:36:57;;;;;;;7.30;2.88;;;;;;;;;;5026627;28;20103;-59
2024/01/17 06:39:26;;;;;;;7.97;2.95;;;;;;;;;;5017113;28;20065;-56
2024/01/17 06:41:53;;;;;;;;;;;;;;;;;;5016180;28;20132;-59
2024/01/17 06:44:21;;;;;;;6.50;2.40;;;;;;;;;;5024787;28;20082;-58
2024/01/17 06:46:48;;;;;;;7.57;2.80;;;;;;;;;;5049078;28;20045;-56
2024/01/17 06:49:15;;;;;;;8.60;3.35;;;;;;;;;;5047613;28;20077;-54
2024/01/17 06:51:42;;;;;;;11.55;3.03;;;;;;;;;;5007997;28;20053;-58
2024/01/17 06:54:09;;;;;;;10.77;4.00;;;;;;;;;;5001117;28;21863;-58
2024/01/17 06:56:36;;;;;;;9.73;3.33;;;;;;;;;;5029398;28;20184;-56
2024/01/17 06:59:03;;;;;;;8.32;2.90;;;;;;;;;;5012163;28;20489;-54
2024/01/17 07:01:31;;;;;;;9.00;2.88;;;;;;;;;;5013954;28;20050;-57
2024/01/17 07:03:58;;;;;;;7.35;2.92;;;;;;;;;;5000069;28;20064;-55
2024/01/17 07:06:25;;;;;;;8.05;3.33;;;;;;;;;;5016210;28;20045;-56
2024/01/17 07:08:51;;;;;;;9.52;3.47;;;;;;;;;;5017664;28;20068;-56
2024/01/17 07:11:19;;;;;;;6.68;3.35;;;;;;;;;;5010378;28;20152;-55
2024/01/17 07:13:45;;;;;;;7.15;2.63;;;;;;;;;;5016427;28;20053;-58
2024/01/17 07:16:15;;;;;;;9.82;3.55;;;;;;;;;;5024017;28;20061;-59
2024/01/17 07:18:44;;;;;;;9.30;3.17;;;;;;;;;;5016448;28;20081;-58
2024/01/17 07:21:11;;;;;;;6.97;2.72;;;;;;;;;;5029885;28;20071;-59
2024/01/17 07:23:39;;;;;;;7.55;2.88;;;;;;;;;;5016235;28;20084;-57
2024/01/17 07:26:06;;;;;;;6.87;2.63;;;;;;;;;;4983504;28;20076;-57
2024/01/17 07:28:33;;;;;;;10.32;3.00;;;;;;;;;;5018310;28;20053;-56
2024/01/17 07:31:00;;;;;;;12.23;3.85;;;;;;;;;;5018558;28;20053;-55
2024/01/17 07:33:27;;;;;;;7.25;2.92;;;;;;;;;;5050587;28;20052;-60
2024/01/17 07:35:56;;;;;;;8.25;3.00;;;;;;;;;;5025248;28;20059;-60
2024/01/17 07:38:25;;;;;;;10.68;2.78;;;;;;;;;;5033310;28;20057;-59
2024/01/17 07:40:53;;;;;;;7.22;2.63;;;;;;;;;;5017967;28;20045;-60
2024/01/17 07:43:20;;;;;;;6.30;2.90;;;;;;;;;;5030002;28;20115;-60
2024/01/17 07:45:46;;;;;;;7.15;2.88;;;;;;;;;;5002903;28;20053;-57
2024/01/17 07:48:14;;;;;;;8.65;3.13;;;;;;;;;;5011579;28;20118;-57
2024/01/17 07:50:41;;;;;;;9.32;3.10;;;;;;;;;;5035931;28;20071;-57
2024/01/17 07:53:11;;;;;;;12.05;3.80;;;;;;;;;;5016579;28;20176;-60
2024/01/17 07:55:38;;;;;;;7.43;2.90;;;;;;;;;;5020902;28;20045;-58
2024/01/17 07:58:05;;;;;;;9.15;3.58;;;;;;;;;;5012066;28;20082;-59
2024/01/17 08:00:32;;;;;;;8.40;3.40;;;;;;;;;;5017597;28;20081;-57
2024/01/17 08:02:59;;;;;;;9.63;3.35;;;;;;;;;;5014701;28;20049;-57
2024/01/17 08:05:27;;;;;;;8.27;3.25;;;;;;;;;;5048376;28;20080;-58
2024/01/17 08:07:53;;;;;;;7.45;3.42;;;;;;;;;;5012812;28;20317;-55
2024/01/17 08:10:25;;;;;;;9.00;3.17;;;;;;;;;;5014013;28;20072;-53
2024/01/17 08:12:51;;;;;;;10.52;3.88;;;;;;;;;;5033181;28;20152;-54
2024/01/17 08:15:20;;;;;;;8.90;3.50;;;;;;;;;;4991039;28;20053;-56
2024/01/17 08:17:50;;;;;;;11.10;4.45;;;;;;;;;;5027686;28;20159;-55
2024/01/17 08:20:18;;;;;;;14.23;3.58;;;;;;;;;;5013371;28;20053;-57
2024/01/17 08:22:45;;;;;;;9.98;2.72;;;;;;;;;;5017059;28;20072;-55
2024/01/17 08:25:12;;;;;;;8.27;2.63;;;;;;;;;;5023234;28;20158;-56
2024/01/17 08:27:42;;;;;;;10.23;3.03;;;;;;;;;;5018299;28;20077;-56
2024/01/17 08:30:10;;;;;;;8.32;3.00;;;;;;;;;;5025734;28;20056;-55
2024/01/17 08:32:37;;;;;;;6.75;2.80;;;;;;;;;;5034449;28;20045;-56
2024/01/17 08:35:08;;;;;;;11.18;3.13;;;;;;;;;;5037409;28;20440;-55
2024/01/17 08:37:36;;;;;;;10.20;3.22;;;;;;;;;;5014960;28;20045;-53
2024/01/17 08:40:08;;;;;;;8.98;3.00;;;;;;;;;;5019434;28;20060;-56
2024/01/17 08:42:35;;;;;;;9.90;3.03;;;;;;;;;;5051231;28;20053;-54
2024/01/17 08:45:06;;;;;;;8.07;2.90;;;;;;;;;;4990965;28;20057;-56
2024/01/17 08:47:33;;;;;;;7.60;2.70;;;;;;;;;;5018445;28;20108;-58
2024/01/17 08:50:01;;;;;;;6.95;2.58;;;;;;;;;;5013056;28;20057;-55
2024/01/17 08:52:30;;;;;;;13.77;3.78;;;;;;;;;;5034791;28;20085;-55
2024/01/17 08:54:57;;;;;;;7.75;3.28;;;;;;;;;;4985587;28;20060;-59
2024/01/17 08:57:24;;;;;;;8.35;2.88;;;;;;;;;;5026132;28;20063;-57
2024/01/17 08:59:51;;;;;;;9.85;2.78;;;;;;;;;;5015767;28;20045;-53
2024/01/17 09:02:20;;;;;;;6.65;3.00;;;;;;;;;;5029794;28;20152;-56
2024/01/17 09:04:47;;;;;;;6.78;2.90;;;;;;;;;;4997338;28;20073;-58
2024/01/17 09:07:13;;;;;;;10.73;3.13;;;;;;;;;;5012941;28;21247;-55
2024/01/17 09:09:40;;;;;;;7.22;2.75;;;;;;;;;;5022088;28;20041;-56
2024/01/17 09:12:07;;;;;;;8.23;3.00;;;;;;;;;;5014067;28;20168;-55
2024/01/17 09:14:34;;;;;;;10.98;3.15;;;;;;;;;;5005136;28;20057;-54
2024/01/17 09:17:03;;;;;;;10.15;3.25;;;;;;;;;;5016538;28;20042;-56
2024/01/17 09:19:31;;;;;;;8.45;3.05;;;;;;;;;;5015226;28;20045;-59
2024/01/17 09:21:58;;;;;;;9.70;3.45;;;;;;;;;;5011298;28;20367;-54
2024/01/17 09:24:25;;;;;;;8.15;2.85;;;;;;;;;;5028363;28;20065;-55
2024/01/17 09:26:52;;;;;;;5.45;2.15;;;;;;;;;;5015898;28;20053;-55
2024/01/17 09:29:20;;;;;;;8.15;2.75;;;;;;;;;;5015165;28;20049;-56
2024/01/17 09:31:47;;;;;;;10.40;2.80;;;;;;;;;;5030813;28;20053;-57
2024/01/17 09:34:14;;;;;;;8.82;2.88;;;;;;;;;;4992624;28;20150;-55
2024/01/17 09:36:46;;;;;;;8.70;2.40;;;;;;;;;;5030006;28;20076;-55
2024/01/17 09:39:13;;;;;;;8.98;3.33;;;;;;;;;;5047710;28;20132;-57
2024/01/17 09:41:41;;;;;;;7.10;2.63;;;;;;;;;;5016516;28;20053;-58
2024/01/17 09:44:08;;;;;;;8.15;3.38;;;;;;;;;;4987174;28;20050;-54
2024/01/17 09:46:41;;;;;;;11.85;4.10;;;;;;;;;;5025517;28;20131;-54
2024/01/17 09:49:08;;;;;;;13.05;3.83;;;;;;;;;;5014389;28;20045;-54
2024/01/17 09:51:36;;;;;;;6.45;2.95;;;;;;;;;;5031291;28;20536;-59
2024/01/17 09:54:08;;;;;;;8.38;3.88;;;;;;;;;;4992906;28;20162;-58
2024/01/17 09:56:36;;;;;;;9.63;3.63;;;;;;;;;;5031725;28;20048;-57
2024/01/17 09:59:14;;;;;;;9.60;3.83;;;;;;;;;;5049153;28;20067;-58
2024/01/17 10:01:43;;;;;;;9.73;2.88;;;;;;;;;;5015362;28;20049;-58
2024/01/17 10:04:12;;;;;;;6.65;2.97;;;;;;;;;;5004520;28;20049;-59
2024/01/17 10:06:43;;;;;;;8.10;3.05;;;;;;;;;;5044494;28;20078;-56
2024/01/17 10:09:14;;;;;;;9.80;3.17;;;;;;;;;;5015634;28;20155;-53
2024/01/17 10:11:40;;;;;;;6.63;2.85;;;;;;;;;;5013060;28;20057;-56
2024/01/17 10:14:07;;;;;;;8.20;2.95;;;;;;;;;;4991766;28;20087;-55
2024/01/17 10:16:40;;;;;;;9.77;4.00;;;;;;;;;;5041267;28;20143;-59
2024/01/17 10:19:13;;;;;;;10.32;4.20;;;;;;;;;;5015129;28;20136;-55
2024/01/17 10:21:40;;;;;;;7.63;3.13;;;;;;;;;;5016587;28;20045;-57
2024/01/17 10:24:07;;;;;;;12.30;3.25;;;;;;;;;;5028581;28;20053;-55
2024/01/17 10:26:35;;;;;;;8.23;3.00;;;;;;;;;;5010805;28;20096;-58
2024/01/17 10:29:02;;;;;;;9.60;3.38;;;;;;;;;;5011919;28;20191;-56
2024/01/17 10:31:30;;;;;;;7.72;3.47;;;;;;;;;;5030789;28;20042;-58
2024/01/17 10:33:57;;;;;;;8.93;3.88;;;;;;;;;;4975157;28;20051;-58
2024/01/17 10:36:24;;;;;;;9.77;3.97;;;;;;;;;;5008202;28;20107;-56
2024/01/17 10:38:51;;;;;;;6.55;2.92;;;;;;;;;;5032275;28;20054;-58
2024/01/17 10:41:18;;;;;;;9.93;2.97;;;;;;;;;;5016332;28;20072;-59
2024/01/17 10:43:55;;;;;;;8.95;3.72;;;;;;;;;;5011685;28;20077;-58
2024/01/17 10:46:22;;;;;;;9.65;3.40;;;;;;;;;;4952629;28;20056;-57
2024/01/17 10:48:49;;;;;;;11.00;3.40;;;;;;;;;;5013844;28;20045;-58
2024/01/17 10:51:20;;;;;;;8.82;3.47;;;;;;;;;;5030724;28;20782;-61
2024/01/17 10:53:49;;;;;;;8.52;3.63;;;;;;;;;;5002992;28;20065;-56
2024/01/17 10:56:19;;;;;;;8.18;3.33;;;;;;;;;;4973551;28;20240;-57
2024/01/17 10:58:50;;;;;;;9.13;3.30;;;;;;;;;;5030551;28;20049;-57
2024/01/17 11:01:25;;;;;;;8.27;3.45;;;;;;;;;;5029696;28;20155;-58
2024/01/17 11:03:55;;;;;;;7.00;3.03;;;;;;;;;;5027313;28;20053;-57
2024/01/17 11:06:25;;;;;;;10.02;3.88;;;;;;;;;;4996113;28;20052;-56
2024/01/17 11:08:56;;;;;;;8.95;3.80;;;;;;;;;;5031912;28;20137;-57
2024/01/17 11:11:24;;;;;;;11.90;3.70;;;;;;;;;;5047389;28;20049;-55
2024/01/17 11:13:52;;;;;;;13.00;3.60;;;;;;;;;;5016863;28;20057;-59
2024/01/17 11:16:22;;;;;;;10.65;3.53;;;;;;;;;;5011666;28;20119;-54
2024/01/17 11:18:53;;;;;;;8.90;3.20;;;;;;;;;;5031591;28;20057;-58
2024/01/17 11:21:21;;;;;;;8.77;3.25;;;;;;;;;;5031049;28;20152;-58
2024/01/17 11:23:54;;;;;;;;;;;;;;;;;;5031940;28;20057;-56
2024/01/17 11:26:27;;;;;;;6.35;2.40;;;;;;;;;;4989063;28;20726;-58
2024/01/17 11:29:03;;;;;;;7.72;3.30;;;;;;;;;;5004977;28;20119;-56
2024/01/17 11:31:41;;;;;;;7.00;2.90;;;;;;;;;;5013296;28;20041;-56
2024/01/17 11:34:09;;;;;;;5.63;3.05;;;;;;;;;;5040327;28;20056;-60
2024/01/17 11:36:44;;;;;;;6.97;3.05;;;;;;;;;;5053059;28;20452;-59
2024/01/17 11:39:12;;;;;;;13.02;3.58;;;;;;;;;;5014338;28;20077;-56
2024/01/17 11:41:39;;;;;;;13.32;3.65;;;;;;;;;;5046976;28;20162;-57
2024/01/17 11:44:08;;;;;;;13.10;4.22;;;;;;;;;;5038496;28;20049;-58
2024/01/17 11:46:36;;;;;;;11.65;3.42;;;;;;;;;;5003244;28;20153;-58
2024/01/17 11:49:05;;;;;;;8.30;3.15;;;;;;;;;;5029266;28;20164;-55
2024/01/17 11:51:34;;;;;;;10.52;3.42;;;;;;;;;;5023878;28;20064;-59
2024/01/17 11:54:03;;;;;;;10.77;3.97;;;;;;;;;;5008103;28;20049;-58
2024/01/17 11:56:33;;;;;;;7.65;3.20;;;;;;;;;;5013459;28;20064;-58
2024/01/17 11:59:06;;;;;;;9.55;3.15;;;;;;;;;;5012074;28;20057;-57
2024/01/17 12:01:42;;;;;;;14.65;4.03;;;;;;;;;;5030467;28;20064;-58
2024/01/17 12:04:14;;;;;;;10.23;3.70;;;;;;;;;;5023551;28;20049;-58
2024/01/17 12:06:42;;;;;;;11.20;3.80;;;;;;;;;;5011247;28;20176;-57
2024/01/17 12:09:17;;;;;;;10.73;3.77;;;;;;;;;;5046546;28;20133;-58
2024/01/17 12:11:46;;;;;;;11.02;3.72;;;;;;;;;;5016824;28;20060;-58
2024/01/17 12:14:13;;;;;;;12.95;3.78;;;;;;;;;;5014894;28;20057;-58
2024/01/17 12:16:48;;;;;;;11.70;3.55;;;;;;;;;;5021097;28;20123;-57
2024/01/17 12:19:15;;;;;;;9.30;3.70;;;;;;;;;;5045195;28;20057;-57
2024/01/17 12:21:42;;;;;;;7.80;3.67;;;;;;;;;;5033957;28;20185;-59
2024/01/17 12:24:13;;;;;;;11.13;4.28;;;;;;;;;;5010164;28;20186;-59
2024/01/17 12:26:41;;;;;;;7.95;3.08;;;;;;;;;;4989385;28;20049;-59
2024/01/17 12:29:10;;;;;;;12.98;3.67;;;;;;;;;;5017080;28;20128;-59
2024/01/17 12:31:39;;;;;;;12.02;3.92;;;;;;;;;;5020175;28;20041;-58
2024/01/17 12:34:09;;;;;;;9.52;4.18;;;;;;;;;;5004517;28;20061;-60
2024/01/17 12:36:36;;;;;;;10.55;4.22;;;;;;;;;;4905485;28;20114;-60
2024/01/17 12:39:09;;;;;;;15.07;4.68;;;;;;;;;;4956299;28;20093;-59
2024/01/17 12:41:37;;;;;;;12.38;3.90;;;;;;;;;;4944482;28;20086;-60
2024/01/17 12:44:13;;;;;;;12.50;4.05;;;;;;;;;;4953528;28;20061;-60
2024/01/17 12:46:40;;;;;;;9.40;4.15;;;;;;;;;;4943766;28;20078;-60
2024/01/17 12:49:16;;;;;;;8.35;3.53;;;;;;;;;;4955559;28;20138;-60
2024/01/17 12:51:43;;;;;;;12.27;4.05;;;;;;;;;;4939944;28;20152;-60
2024/01/17 12:54:10;;;;;;;12.90;3.92;;;;;;;;;;4935577;28;20359;-60
2024/01/17 12:56:37;;;;;;;12.05;4.28;;;;;;;;;;4933178;28;20063;-60
2024/01/17 12:59:05;;;;;;;9.85;3.90;;;;;;;;;;5015312;28;20103;-59
2024/01/17 13:01:32;;;;;;;18.17;4.68;;;;;;;;;;5008164;28;20061;-61
2024/01/17 13:04:07;;;;;;;12.77;4.10;;;;;;;;;;5012951;28;20049;-61
2024/01/17 13:06:45;;;;;;;8.88;3.55;;;;;;;;;;5022048;28;20061;-60
2024/01/17 13:09:17;;;;;;;11.80;4.30;;;;;;;;;;5019568;28;21573;-62
2024/01/17 13:11:48;;;;;;;10.70;4.70;;;;;;;;;;5033568;28;20085;-60
2024/01/17 13:14:19;;;;;;;10.48;4.00;;;;;;;;;;5011140;28;20061;-60
2024/01/17 13:16:47;;;;;;;13.20;4.23;;;;;;;;;;5012426;28;20224;-59
2024/01/17 13:19:16;;;;;;;9.20;3.72;;;;;;;;;;5033129;28;20296;-60
2024/01/17 13:21:47;;;;;;;11.07;3.50;;;;;;;;;;5017980;28;20049;-60
2024/01/17 13:24:15;;;;;;;7.13;3.60;;;;;;;;;;5012075;28;20053;-60
2024/01/17 13:26:43;;;;;;;7.03;3.28;;;;;;;;;;4977189;28;20050;-60
2024/01/17 13:29:12;;;;;;;8.63;3.05;;;;;;;;;;5016817;28;20048;-61
2024/01/17 13:31:40;;;;;;;11.90;4.50;;;;;;;;;;5018024;28;20053;-60
2024/01/17 13:34:07;;;;;;;10.85;4.28;;;;;;;;;;5007446;28;20085;-60
2024/01/17 13:36:37;;;;;;;12.73;4.20;;;;;;;;;;5016231;28;20049;-60
2024/01/17 13:39:09;;;;;;;9.88;3.85;;;;;;;;;;5017387;28;20041;-62
2024/01/17 13:41:36;;;;;;;9.40;3.65;;;;;;;;;;5022207;28;20104;-62
2024/01/17 13:44:03;;;;;;;11.68;4.45;;;;;;;;;;5027708;28;20038;-60
2024/01/17 13:46:30;;;;;;;9.68;4.25;;;;;;;;;;4999514;28;20077;-60
2024/01/17 13:48:57;;;;;;;9.77;4.25;;;;;;;;;;5014938;28;20065;-61
2024/01/17 13:51:25;;;;;;;8.77;3.35;;;;;;;;;;5013194;28;20056;-61
2024/01/17 13:53:53;;;;;;;11.25;3.75;;;;;;;;;;5015174;28;20057;-61
2024/01/17 13:56:21;;;;;;;8.55;3.58;;;;;;;;;;4979926;28;20061;-60
2024/01/17 13:58:48;;;;;;;8.88;3.42;;;;;;;;;;5015061;28;20045;-60
2024/01/17 14:01:18;;;;;;;8.85;3.75;;;;;;;;;;5046510;28;20041;-60
2024/01/17 14:03:47;;;;;;;10.60;4.07;;;;;;;;;;5017192;28;20164;-60
2024/01/17 14:06:17;;;;;;;11.45;3.55;;;;;;;;;;4994542;28;20057;-61
2024/01/17 14:08:45;;;;;;;10.07;4.10;;;;;;;;;;5016532;28;20068;-61
2024/01/17 14:11:13;;;;;;;12.88;3.67;;;;;;;;;;5017310;28;20046;-61
2024/01/17 14:13:42;;;;;;;11.82;3.92;;;;;;;;;;5032044;28;20087;-60
2024/01/17 14:16:15;;;;;;;7.50;3.10;;;;;;;;;;4995723;28;20119;-60
2024/01/17 14:18:42;;;;;;;9.90;3.78;;;;;;;;;;5015727;28;20060;-60
2024/01/17 14:21:12;;;;;;;7.53;3.60;;;;;;;;;;5013672;28;20065;-63
2024/01/17 14:23:41;;;;;;;13.10;4.32;;;;;;;;;;5014244;28;20079;-61
2024/01/17 14:26:11;;;;;;;8.95;3.58;;;;;;;;;;5017905;28;20126;-60
2024/01/17 14:28:38;;;;;;;9.43;3.95;;;;;;;;;;5018682;28;20117;-60
2024/01/17 14:31:07;;;;;;;12.88;5.00;;;;;;;;;;5047222;28;20060;-61
2024/01/17 14:33:33;;;;;;;6.97;2.90;;;;;;;;;;5045873;28;20052;-60
2024/01/17 14:36:06;;;;;;;15.50;3.50;;;;;;;;;;4989809;28;20067;-61
2024/01/17 14:38:38;;;;;;;10.57;3.85;;;;;;;;;;5046336;28;20049;-60
2024/01/17 14:41:07;;;;;;;12.30;4.35;;;;;;;;;;5031667;28;20045;-61
2024/01/17 14:43:36;;;;;;;10.18;4.03;;;;;;;;;;5031637;28;20125;-60
2024/01/17 14:46:08;;;;;;;14.45;4.43;;;;;;;;;;5011797;28;20046;-61